sensor_id;sensor_type;location;lat;lon;timestamp;temperature;humidity
1347;DHT22;667;48.796;9.480;2022-12-07T00:01:20;7.50;83.90
1347;DHT22;667;48.796;9.480;2022-12-07T00:03:48;7.60;83.90
1347;DHT22;667;48.796;9.480;2022-12-07T00:06:14;7.60;83.90
1347;DHT22;667;48.796;9.480;2022-12-07T00:08:40;7.60;83.80
1347;DHT22;667;48.796;9.480;2022-12-07T00:11:09;7.60;83.80
1347;DHT22;667;48.796;9.480;2022-12-07T00:13:35;7.60;83.80
1347;DHT22;667;48.796;9.480;2022-12-07T00:16:03;7.60;83.70
1347;DHT22;667;48.796;9.480;2022-12-07T00:18:29;7.60;83.70
1347;DHT22;667;48.796;9.480;2022-12-07T00:21:02;7.60;83.70
1347;DHT22;667;48.796;9.480;2022-12-07T00:23:28;7.60;83.70
1347;DHT22;667;48.796;9.480;2022-12-07T00:25:54;7.60;83.80
1347;DHT22;667;48.796;9.480;2022-12-07T00:28:19;7.60;83.80
1347;DHT22;667;48.796;9.480;2022-12-07T00:30:45;7.60;83.70
1347;DHT22;667;48.796;9.480;2022-12-07T00:33:10;7.60;83.70
1347;DHT22;667;48.796;9.480;2022-12-07T00:35:36;7.60;83.50
1347;DHT22;667;48.796;9.480;2022-12-07T00:38:01;7.60;83.60
1347;DHT22;667;48.796;9.480;2022-12-07T00:40:27;7.50;83.50
1347;DHT22;667;48.796;9.480;2022-12-07T00:42:52;7.60;83.70
1347;DHT22;667;48.796;9.480;2022-12-07T00:45:18;7.60;83.70
1347;DHT22;667;48.796;9.480;2022-12-07T00:47:44;7.50;83.50
1347;DHT22;667;48.796;9.480;2022-12-07T00:50:09;7.50;83.40
1347;DHT22;667;48.796;9.480;2022-12-07T00:52:35;7.50;83.50
1347;DHT22;667;48.796;9.480;2022-12-07T00:55:00;7.50;83.60
1347;DHT22;667;48.796;9.480;2022-12-07T00:57:26;7.50;83.60
1347;DHT22;667;48.796;9.480;2022-12-07T00:59:51;7.50;83.50
1347;DHT22;667;48.796;9.480;2022-12-07T01:02:21;7.50;83.60
1347;DHT22;667;48.796;9.480;2022-12-07T01:04:46;7.50;83.60
1347;DHT22;667;48.796;9.480;2022-12-07T01:07:12;7.60;83.60
1347;DHT22;667;48.796;9.480;2022-12-07T01:09:37;7.50;83.50
1347;DHT22;667;48.796;9.480;2022-12-07T01:12:03;7.50;83.50
1347;DHT22;667;48.796;9.480;2022-12-07T01:14:29;7.50;83.40
1347;DHT22;667;48.796;9.480;2022-12-07T01:16:54;7.50;83.40
1347;DHT22;667;48.796;9.480;2022-12-07T01:19:20;7.50;83.40
1347;DHT22;667;48.796;9.480;2022-12-07T01:21:45;7.50;83.40
1347;DHT22;667;48.796;9.480;2022-12-07T01:24:11;7.50;83.40
1347;DHT22;667;48.796;9.480;2022-12-07T01:26:37;7.50;83.30
1347;DHT22;667;48.796;9.480;2022-12-07T01:29:03;7.50;83.30
1347;DHT22;667;48.796;9.480;2022-12-07T01:31:28;7.50;83.20
1347;DHT22;667;48.796;9.480;2022-12-07T01:33:56;7.50;83.30
1347;DHT22;667;48.796;9.480;2022-12-07T01:36:26;7.50;83.10
1347;DHT22;667;48.796;9.480;2022-12-07T01:38:58;7.50;83.10
1347;DHT22;667;48.796;9.480;2022-12-07T01:41:26;7.50;82.90
1347;DHT22;667;48.796;9.480;2022-12-07T01:46:36;7.50;82.80
1347;DHT22;667;48.796;9.480;2022-12-07T01:49:08;7.50;82.80
1347;DHT22;667;48.796;9.480;2022-12-07T01:51:37;7.50;82.70
1347;DHT22;667;48.796;9.480;2022-12-07T01:54:04;7.50;82.60
1347;DHT22;667;48.796;9.480;2022-12-07T01:56:31;7.50;82.60
1347;DHT22;667;48.796;9.480;2022-12-07T01:58:58;7.50;82.50
1347;DHT22;667;48.796;9.480;2022-12-07T02:01:25;7.50;82.50
1347;DHT22;667;48.796;9.480;2022-12-07T02:03:51;7.50;82.40
1347;DHT22;667;48.796;9.480;2022-12-07T02:06:21;7.50;82.30
1347;DHT22;667;48.796;9.480;2022-12-07T02:08:47;7.50;82.20
1347;DHT22;667;48.796;9.480;2022-12-07T02:11:13;7.40;82.20
1347;DHT22;667;48.796;9.480;2022-12-07T02:13:41;7.50;83.00
1347;DHT22;667;48.796;9.480;2022-12-07T02:22:22;7.50;82.30
1347;DHT22;667;48.796;9.480;2022-12-07T02:30:01;7.40;82.20
1347;DHT22;667;48.796;9.480;2022-12-07T02:32:43;7.40;82.30
1347;DHT22;667;48.796;9.480;2022-12-07T02:35:40;7.40;82.40
1347;DHT22;667;48.796;9.480;2022-12-07T02:43:37;7.40;82.50
1347;DHT22;667;48.796;9.480;2022-12-07T02:46:09;7.40;82.50
1347;DHT22;667;48.796;9.480;2022-12-07T02:48:38;7.40;82.50
1347;DHT22;667;48.796;9.480;2022-12-07T02:51:04;7.40;82.50
1347;DHT22;667;48.796;9.480;2022-12-07T02:53:37;7.40;82.40
1347;DHT22;667;48.796;9.480;2022-12-07T02:56:27;7.40;82.40
1347;DHT22;667;48.796;9.480;2022-12-07T03:07:48;7.40;82.50
1347;DHT22;667;48.796;9.480;2022-12-07T03:10:32;7.40;82.50
1347;DHT22;667;48.796;9.480;2022-12-07T03:13:09;7.40;82.50
1347;DHT22;667;48.796;9.480;2022-12-07T03:15:46;7.30;82.50
1347;DHT22;667;48.796;9.480;2022-12-07T03:18:16;7.30;82.40
1347;DHT22;667;48.796;9.480;2022-12-07T03:20:44;7.30;82.50
1347;DHT22;667;48.796;9.480;2022-12-07T03:23:12;7.30;82.50
1347;DHT22;667;48.796;9.480;2022-12-07T03:25:41;7.30;82.60
1347;DHT22;667;48.796;9.480;2022-12-07T03:28:08;7.30;82.60
1347;DHT22;667;48.796;9.480;2022-12-07T03:30:56;7.30;82.60
1347;DHT22;667;48.796;9.480;2022-12-07T03:33:31;7.30;82.70
1347;DHT22;667;48.796;9.480;2022-12-07T03:38:49;7.30;82.60
1347;DHT22;667;48.796;9.480;2022-12-07T03:41:24;7.30;82.60
1347;DHT22;667;48.796;9.480;2022-12-07T03:43:51;7.30;82.70
1347;DHT22;667;48.796;9.480;2022-12-07T03:46:42;7.30;82.90
1347;DHT22;667;48.796;9.480;2022-12-07T03:49:26;7.30;82.80
1347;DHT22;667;48.796;9.480;2022-12-07T03:57:41;7.20;82.50
1347;DHT22;667;48.796;9.480;2022-12-07T04:00:09;7.20;82.60
1347;DHT22;667;48.796;9.480;2022-12-07T04:02:35;7.20;82.80
1347;DHT22;667;48.796;9.480;2022-12-07T04:05:02;7.20;82.80
1347;DHT22;667;48.796;9.480;2022-12-07T04:07:27;7.20;82.80
1347;DHT22;667;48.796;9.480;2022-12-07T04:09:53;7.10;82.50
1347;DHT22;667;48.796;9.480;2022-12-07T04:12:20;7.10;82.40
1347;DHT22;667;48.796;9.480;2022-12-07T04:14:46;7.10;82.50
1347;DHT22;667;48.796;9.480;2022-12-07T04:17:12;7.10;82.50
1347;DHT22;667;48.796;9.480;2022-12-07T04:19:37;7.10;82.50
1347;DHT22;667;48.796;9.480;2022-12-07T04:22:04;7.00;82.40
1347;DHT22;667;48.796;9.480;2022-12-07T04:24:30;7.00;82.50
1347;DHT22;667;48.796;9.480;2022-12-07T04:26:56;7.00;82.60
1347;DHT22;667;48.796;9.480;2022-12-07T04:29:22;7.00;82.60
1347;DHT22;667;48.796;9.480;2022-12-07T04:31:48;7.00;82.50
1347;DHT22;667;48.796;9.480;2022-12-07T04:34:15;7.00;82.30
1347;DHT22;667;48.796;9.480;2022-12-07T04:36:41;7.00;82.30
1347;DHT22;667;48.796;9.480;2022-12-07T04:39:09;6.90;82.10
1347;DHT22;667;48.796;9.480;2022-12-07T04:41:38;6.90;82.00
1347;DHT22;667;48.796;9.480;2022-12-07T04:44:04;6.80;81.90
1347;DHT22;667;48.796;9.480;2022-12-07T04:46:33;6.80;81.80
1347;DHT22;667;48.796;9.480;2022-12-07T04:48:59;6.70;81.70
1347;DHT22;667;48.796;9.480;2022-12-07T04:51:27;6.70;81.90
1347;DHT22;667;48.796;9.480;2022-12-07T04:53:54;6.60;81.80
1347;DHT22;667;48.796;9.480;2022-12-07T04:56:21;6.60;81.90
1347;DHT22;667;48.796;9.480;2022-12-07T04:58:47;6.60;82.10
1347;DHT22;667;48.796;9.480;2022-12-07T05:01:14;6.50;82.20
1347;DHT22;667;48.796;9.480;2022-12-07T05:03:40;6.50;82.60
1347;DHT22;667;48.796;9.480;2022-12-07T05:06:06;6.60;82.80
1347;DHT22;667;48.796;9.480;2022-12-07T05:08:33;6.60;82.80
1347;DHT22;667;48.796;9.480;2022-12-07T05:10:59;6.60;82.70
1347;DHT22;667;48.796;9.480;2022-12-07T05:13:24;6.60;82.70
1347;DHT22;667;48.796;9.480;2022-12-07T05:15:50;6.60;82.60
1347;DHT22;667;48.796;9.480;2022-12-07T05:18:16;6.60;82.50
1347;DHT22;667;48.796;9.480;2022-12-07T05:20:42;6.60;82.60
1347;DHT22;667;48.796;9.480;2022-12-07T05:23:08;6.60;82.70
1347;DHT22;667;48.796;9.480;2022-12-07T05:25:34;6.60;82.80
1347;DHT22;667;48.796;9.480;2022-12-07T05:28:00;6.60;82.80
1347;DHT22;667;48.796;9.480;2022-12-07T05:30:26;6.60;82.70
1347;DHT22;667;48.796;9.480;2022-12-07T05:32:51;6.60;82.80
1347;DHT22;667;48.796;9.480;2022-12-07T05:35:17;6.60;82.50
1347;DHT22;667;48.796;9.480;2022-12-07T05:37:43;6.60;82.30
1347;DHT22;667;48.796;9.480;2022-12-07T05:40:10;6.70;82.30
1347;DHT22;667;48.796;9.480;2022-12-07T05:42:35;6.70;82.20
1347;DHT22;667;48.796;9.480;2022-12-07T05:45:01;6.70;81.90
1347;DHT22;667;48.796;9.480;2022-12-07T05:47:27;6.70;81.70
1347;DHT22;667;48.796;9.480;2022-12-07T05:49:52;6.80;81.70
1347;DHT22;667;48.796;9.480;2022-12-07T05:52:18;6.80;81.70
1347;DHT22;667;48.796;9.480;2022-12-07T05:54:43;6.80;81.70
1347;DHT22;667;48.796;9.480;2022-12-07T05:57:09;6.80;81.60
1347;DHT22;667;48.796;9.480;2022-12-07T05:59:36;6.80;81.40
1347;DHT22;667;48.796;9.480;2022-12-07T06:02:07;6.80;81.40
1347;DHT22;667;48.796;9.480;2022-12-07T06:04:37;6.80;81.60
1347;DHT22;667;48.796;9.480;2022-12-07T06:07:04;6.80;81.60
1347;DHT22;667;48.796;9.480;2022-12-07T06:09:30;6.80;81.50
1347;DHT22;667;48.796;9.480;2022-12-07T06:11:56;6.80;81.50
1347;DHT22;667;48.796;9.480;2022-12-07T06:14:40;6.80;81.70
1347;DHT22;667;48.796;9.480;2022-12-07T06:17:06;6.70;81.50
1347;DHT22;667;48.796;9.480;2022-12-07T06:19:32;6.70;81.60
1347;DHT22;667;48.796;9.480;2022-12-07T06:21:58;6.70;81.40
1347;DHT22;667;48.796;9.480;2022-12-07T06:24:24;6.70;81.50
1347;DHT22;667;48.796;9.480;2022-12-07T06:26:50;6.70;81.50
1347;DHT22;667;48.796;9.480;2022-12-07T06:29:16;6.70;81.50
1347;DHT22;667;48.796;9.480;2022-12-07T06:31:42;6.70;81.60
1347;DHT22;667;48.796;9.480;2022-12-07T06:34:14;6.70;81.60
1347;DHT22;667;48.796;9.480;2022-12-07T06:36:40;6.60;81.40
1347;DHT22;667;48.796;9.480;2022-12-07T06:39:06;6.60;81.40
1347;DHT22;667;48.796;9.480;2022-12-07T06:41:33;6.60;81.40
1347;DHT22;667;48.796;9.480;2022-12-07T06:43:58;6.50;81.40
1347;DHT22;667;48.796;9.480;2022-12-07T06:46:24;6.50;81.40
1347;DHT22;667;48.796;9.480;2022-12-07T06:48:50;6.50;82.50
1347;DHT22;667;48.796;9.480;2022-12-07T06:51:16;6.50;82.00
1347;DHT22;667;48.796;9.480;2022-12-07T06:53:41;6.50;82.10
1347;DHT22;667;48.796;9.480;2022-12-07T06:56:07;6.50;82.20
1347;DHT22;667;48.796;9.480;2022-12-07T06:58:33;6.50;82.00
1347;DHT22;667;48.796;9.480;2022-12-07T07:00:58;6.50;82.00
1347;DHT22;667;48.796;9.480;2022-12-07T07:03:24;6.50;82.20
1347;DHT22;667;48.796;9.480;2022-12-07T07:05:50;6.50;82.30
1347;DHT22;667;48.796;9.480;2022-12-07T07:08:15;6.50;82.30
1347;DHT22;667;48.796;9.480;2022-12-07T07:10:41;6.50;82.30
1347;DHT22;667;48.796;9.480;2022-12-07T07:13:07;6.50;82.30
1347;DHT22;667;48.796;9.480;2022-12-07T07:15:33;6.50;82.30
1347;DHT22;667;48.796;9.480;2022-12-07T07:17:59;6.50;82.30
1347;DHT22;667;48.796;9.480;2022-12-07T07:20:25;6.50;82.20
1347;DHT22;667;48.796;9.480;2022-12-07T07:22:54;6.50;82.30
1347;DHT22;667;48.796;9.480;2022-12-07T07:25:19;6.50;82.30
1347;DHT22;667;48.796;9.480;2022-12-07T07:27:45;6.50;82.30
1347;DHT22;667;48.796;9.480;2022-12-07T07:30:10;6.50;82.20
1347;DHT22;667;48.796;9.480;2022-12-07T07:32:36;6.50;82.30
1347;DHT22;667;48.796;9.480;2022-12-07T07:35:02;6.50;82.30
1347;DHT22;667;48.796;9.480;2022-12-07T07:37:28;6.50;82.50
1347;DHT22;667;48.796;9.480;2022-12-07T07:39:53;6.50;82.60
1347;DHT22;667;48.796;9.480;2022-12-07T07:42:19;6.60;82.80
1347;DHT22;667;48.796;9.480;2022-12-07T07:44:44;6.60;82.80
1347;DHT22;667;48.796;9.480;2022-12-07T07:47:10;6.60;82.80
1347;DHT22;667;48.796;9.480;2022-12-07T07:49:36;6.60;82.70
1347;DHT22;667;48.796;9.480;2022-12-07T07:52:02;6.60;82.80
1347;DHT22;667;48.796;9.480;2022-12-07T07:54:27;6.60;82.70
1347;DHT22;667;48.796;9.480;2022-12-07T07:56:53;6.60;82.60
1347;DHT22;667;48.796;9.480;2022-12-07T07:59:18;6.70;82.80
1347;DHT22;667;48.796;9.480;2022-12-07T08:01:44;6.70;82.70
1347;DHT22;667;48.796;9.480;2022-12-07T08:04:09;6.70;82.80
1347;DHT22;667;48.796;9.480;2022-12-07T08:06:35;6.70;82.80
1347;DHT22;667;48.796;9.480;2022-12-07T08:09:01;6.70;82.80
1347;DHT22;667;48.796;9.480;2022-12-07T08:11:26;6.70;82.90
1347;DHT22;667;48.796;9.480;2022-12-07T08:13:52;6.70;82.80
1347;DHT22;667;48.796;9.480;2022-12-07T08:16:17;6.80;82.90
1347;DHT22;667;48.796;9.480;2022-12-07T08:18:43;6.80;82.90
1347;DHT22;667;48.796;9.480;2022-12-07T08:21:14;6.80;82.90
1347;DHT22;667;48.796;9.480;2022-12-07T08:23:40;6.80;83.10
1347;DHT22;667;48.796;9.480;2022-12-07T08:26:08;6.90;83.30
1347;DHT22;667;48.796;9.480;2022-12-07T08:28:34;6.90;83.30
1347;DHT22;667;48.796;9.480;2022-12-07T08:31:01;6.90;83.30
1347;DHT22;667;48.796;9.480;2022-12-07T08:33:27;6.90;83.90
1347;DHT22;667;48.796;9.480;2022-12-07T08:35:52;6.90;83.10
1347;DHT22;667;48.796;9.480;2022-12-07T08:38:18;6.90;82.90
1347;DHT22;667;48.796;9.480;2022-12-07T08:40:43;6.90;82.60
1347;DHT22;667;48.796;9.480;2022-12-07T08:43:09;7.00;82.40
1347;DHT22;667;48.796;9.480;2022-12-07T08:45:34;7.00;82.10
1347;DHT22;667;48.796;9.480;2022-12-07T08:48:09;7.00;81.80
1347;DHT22;667;48.796;9.480;2022-12-07T08:50:36;7.00;81.40
1347;DHT22;667;48.796;9.480;2022-12-07T08:53:03;7.00;80.80
1347;DHT22;667;48.796;9.480;2022-12-07T08:55:30;7.00;80.60
1347;DHT22;667;48.796;9.480;2022-12-07T08:57:57;7.10;80.70
1347;DHT22;667;48.796;9.480;2022-12-07T09:00:24;7.10;80.50
1347;DHT22;667;48.796;9.480;2022-12-07T09:02:49;7.10;80.30
1347;DHT22;667;48.796;9.480;2022-12-07T09:05:15;7.20;80.30
1347;DHT22;667;48.796;9.480;2022-12-07T09:07:43;7.20;80.00
1347;DHT22;667;48.796;9.480;2022-12-07T09:10:10;7.30;80.00
1347;DHT22;667;48.796;9.480;2022-12-07T09:12:35;7.30;79.60
1347;DHT22;667;48.796;9.480;2022-12-07T09:15:01;7.30;79.30
1347;DHT22;667;48.796;9.480;2022-12-07T09:17:26;7.40;79.20
1347;DHT22;667;48.796;9.480;2022-12-07T09:19:52;7.40;79.00
1347;DHT22;667;48.796;9.480;2022-12-07T09:22:18;7.50;79.00
1347;DHT22;667;48.796;9.480;2022-12-07T09:24:43;7.50;78.80
1347;DHT22;667;48.796;9.480;2022-12-07T09:27:11;7.50;78.70
1347;DHT22;667;48.796;9.480;2022-12-07T09:29:37;7.50;78.40
1347;DHT22;667;48.796;9.480;2022-12-07T09:32:02;7.50;78.20
1347;DHT22;667;48.796;9.480;2022-12-07T09:34:31;7.50;78.10
1347;DHT22;667;48.796;9.480;2022-12-07T09:36:57;7.50;77.80
1347;DHT22;667;48.796;9.480;2022-12-07T09:39:25;7.60;77.60
1347;DHT22;667;48.796;9.480;2022-12-07T09:41:50;7.60;77.50
1347;DHT22;667;48.796;9.480;2022-12-07T09:44:25;7.60;77.30
1347;DHT22;667;48.796;9.480;2022-12-07T09:46:52;7.70;76.90
1347;DHT22;667;48.796;9.480;2022-12-07T09:49:23;7.70;76.60
1347;DHT22;667;48.796;9.480;2022-12-07T09:52:02;7.70;76.50
1347;DHT22;667;48.796;9.480;2022-12-07T09:54:29;7.80;76.50
1347;DHT22;667;48.796;9.480;2022-12-07T09:56:56;7.90;76.40
1347;DHT22;667;48.796;9.480;2022-12-07T09:59:21;7.90;76.20
1347;DHT22;667;48.796;9.480;2022-12-07T10:01:49;8.00;76.00
1347;DHT22;667;48.796;9.480;2022-12-07T10:04:19;8.00;75.70
1347;DHT22;667;48.796;9.480;2022-12-07T10:06:47;8.00;75.50
1347;DHT22;667;48.796;9.480;2022-12-07T10:09:17;8.10;75.40
1347;DHT22;667;48.796;9.480;2022-12-07T10:12:06;8.10;75.20
1347;DHT22;667;48.796;9.480;2022-12-07T10:14:35;8.10;74.90
1347;DHT22;667;48.796;9.480;2022-12-07T10:17:01;8.20;74.80
1347;DHT22;667;48.796;9.480;2022-12-07T10:19:32;8.20;74.60
1347;DHT22;667;48.796;9.480;2022-12-07T10:22:05;8.20;74.50
1347;DHT22;667;48.796;9.480;2022-12-07T10:24:32;8.20;74.30
1347;DHT22;667;48.796;9.480;2022-12-07T10:26:58;8.20;73.90
1347;DHT22;667;48.796;9.480;2022-12-07T10:29:37;8.20;73.80
1347;DHT22;667;48.796;9.480;2022-12-07T10:32:25;8.20;73.90
1347;DHT22;667;48.796;9.480;2022-12-07T10:37:46;8.20;73.20
1347;DHT22;667;48.796;9.480;2022-12-07T10:40:33;8.20;73.10
1347;DHT22;667;48.796;9.480;2022-12-07T10:43:17;8.20;73.00
1347;DHT22;667;48.796;9.480;2022-12-07T10:48:43;8.20;72.90
1347;DHT22;667;48.796;9.480;2022-12-07T10:56:47;8.20;72.40
1347;DHT22;667;48.796;9.480;2022-12-07T11:08:13;8.20;72.40
1347;DHT22;667;48.796;9.480;2022-12-07T11:13:43;8.20;72.50
1347;DHT22;667;48.796;9.480;2022-12-07T11:16:33;8.20;72.30
1347;DHT22;667;48.796;9.480;2022-12-07T11:21:52;8.20;72.00
1347;DHT22;667;48.796;9.480;2022-12-07T11:24:58;8.20;72.10
1347;DHT22;667;48.796;9.480;2022-12-07T11:30:12;8.20;72.10
1347;DHT22;667;48.796;9.480;2022-12-07T11:38:22;8.20;72.30
1347;DHT22;667;48.796;9.480;2022-12-07T11:40:53;8.20;72.30
1347;DHT22;667;48.796;9.480;2022-12-07T11:43:31;8.20;72.30
1347;DHT22;667;48.796;9.480;2022-12-07T11:46:08;8.20;72.40
1347;DHT22;667;48.796;9.480;2022-12-07T11:51:24;8.20;72.00
1347;DHT22;667;48.796;9.480;2022-12-07T11:54:11;8.20;71.80
1347;DHT22;667;48.796;9.480;2022-12-07T11:56:37;8.20;71.90
1347;DHT22;667;48.796;9.480;2022-12-07T12:06:35;8.30;72.00
1347;DHT22;667;48.796;9.480;2022-12-07T12:09:11;8.30;71.90
1347;DHT22;667;48.796;9.480;2022-12-07T12:17:49;8.30;72.10
1347;DHT22;667;48.796;9.480;2022-12-07T12:21:00;8.30;72.20
1347;DHT22;667;48.796;9.480;2022-12-07T12:23:29;8.30;72.20
1347;DHT22;667;48.796;9.480;2022-12-07T12:26:01;8.30;72.30
1347;DHT22;667;48.796;9.480;2022-12-07T12:28:40;8.20;72.40
1347;DHT22;667;48.796;9.480;2022-12-07T12:33:50;8.20;73.10
1347;DHT22;667;48.796;9.480;2022-12-07T12:36:26;8.20;73.60
1347;DHT22;667;48.796;9.480;2022-12-07T12:46:59;8.10;74.90
1347;DHT22;667;48.796;9.480;2022-12-07T12:57:07;8.10;75.40
1347;DHT22;667;48.796;9.480;2022-12-07T12:59:36;8.10;75.40
1347;DHT22;667;48.796;9.480;2022-12-07T13:02:21;8.10;75.40
1347;DHT22;667;48.796;9.480;2022-12-07T13:28:51;8.00;75.80
1347;DHT22;667;48.796;9.480;2022-12-07T13:31:34;8.00;75.90
1347;DHT22;667;48.796;9.480;2022-12-07T13:34:02;8.10;76.00
1347;DHT22;667;48.796;9.480;2022-12-07T13:36:36;8.00;75.90
1347;DHT22;667;48.796;9.480;2022-12-07T13:41:42;8.00;75.80
1347;DHT22;667;48.796;9.480;2022-12-07T13:44:16;8.10;75.90
1347;DHT22;667;48.796;9.480;2022-12-07T13:47:05;8.00;75.80
1347;DHT22;667;48.796;9.480;2022-12-07T13:49:37;8.10;76.00
1347;DHT22;667;48.796;9.480;2022-12-07T13:52:30;8.10;76.00
1347;DHT22;667;48.796;9.480;2022-12-07T13:57:22;8.10;75.80
1347;DHT22;667;48.796;9.480;2022-12-07T13:59:47;8.10;75.80
1347;DHT22;667;48.796;9.480;2022-12-07T14:04:49;8.10;75.90
1347;DHT22;667;48.796;9.480;2022-12-07T14:10:01;8.10;76.50
1347;DHT22;667;48.796;9.480;2022-12-07T14:12:28;8.10;75.80
1347;DHT22;667;48.796;9.480;2022-12-07T14:14:55;8.10;75.90
1347;DHT22;667;48.796;9.480;2022-12-07T14:17:23;8.10;75.90
1347;DHT22;667;48.796;9.480;2022-12-07T14:22:33;8.10;75.90
1347;DHT22;667;48.796;9.480;2022-12-07T14:25:23;8.10;75.90
1347;DHT22;667;48.796;9.480;2022-12-07T14:27:58;8.10;76.00
1347;DHT22;667;48.796;9.480;2022-12-07T14:30:29;8.10;75.80
1347;DHT22;667;48.796;9.480;2022-12-07T14:33:03;8.10;75.90
1347;DHT22;667;48.796;9.480;2022-12-07T14:35:31;8.10;75.80
1347;DHT22;667;48.796;9.480;2022-12-07T14:37:57;8.10;75.90
1347;DHT22;667;48.796;9.480;2022-12-07T14:40:25;8.10;75.90
1347;DHT22;667;48.796;9.480;2022-12-07T14:43:12;8.10;75.90
1347;DHT22;667;48.796;9.480;2022-12-07T14:45:39;8.20;76.00
1347;DHT22;667;48.796;9.480;2022-12-07T14:48:11;8.20;76.10
1347;DHT22;667;48.796;9.480;2022-12-07T14:50:40;8.20;76.10
1347;DHT22;667;48.796;9.480;2022-12-07T14:53:13;8.20;76.10
1347;DHT22;667;48.796;9.480;2022-12-07T14:55:39;8.20;75.90
1347;DHT22;667;48.796;9.480;2022-12-07T14:58:04;8.20;75.80
1347;DHT22;667;48.796;9.480;2022-12-07T15:00:30;8.20;75.70
1347;DHT22;667;48.796;9.480;2022-12-07T15:02:56;8.20;75.80
1347;DHT22;667;48.796;9.480;2022-12-07T15:05:22;8.20;76.00
1347;DHT22;667;48.796;9.480;2022-12-07T15:07:48;8.20;76.30
1347;DHT22;667;48.796;9.480;2022-12-07T15:10:26;8.20;76.50
1347;DHT22;667;48.796;9.480;2022-12-07T15:12:57;8.20;76.50
1347;DHT22;667;48.796;9.480;2022-12-07T15:15:43;8.20;76.50
1347;DHT22;667;48.796;9.480;2022-12-07T15:18:08;8.20;76.50
1347;DHT22;667;48.796;9.480;2022-12-07T15:20:34;8.10;76.60
1347;DHT22;667;48.796;9.480;2022-12-07T15:22:59;8.10;76.40
1347;DHT22;667;48.796;9.480;2022-12-07T15:25:25;8.10;76.40
1347;DHT22;667;48.796;9.480;2022-12-07T15:27:50;8.10;76.40
1347;DHT22;667;48.796;9.480;2022-12-07T15:30:16;8.10;76.40
1347;DHT22;667;48.796;9.480;2022-12-07T15:32:41;8.00;76.20
1347;DHT22;667;48.796;9.480;2022-12-07T15:35:07;8.00;76.20
1347;DHT22;667;48.796;9.480;2022-12-07T15:37:33;8.00;76.40
1347;DHT22;667;48.796;9.480;2022-12-07T15:39:59;8.00;76.50
1347;DHT22;667;48.796;9.480;2022-12-07T15:42:24;8.00;76.60
1347;DHT22;667;48.796;9.480;2022-12-07T15:44:50;8.00;76.60
1347;DHT22;667;48.796;9.480;2022-12-07T15:47:33;8.00;76.80
1347;DHT22;667;48.796;9.480;2022-12-07T15:49:59;8.00;76.80
1347;DHT22;667;48.796;9.480;2022-12-07T15:52:24;8.00;76.80
1347;DHT22;667;48.796;9.480;2022-12-07T15:54:50;8.00;76.80
1347;DHT22;667;48.796;9.480;2022-12-07T15:57:16;8.00;76.70
1347;DHT22;667;48.796;9.480;2022-12-07T15:59:41;8.00;76.90
1347;DHT22;667;48.796;9.480;2022-12-07T16:02:09;7.90;77.00
1347;DHT22;667;48.796;9.480;2022-12-07T16:04:35;7.90;77.00
1347;DHT22;667;48.796;9.480;2022-12-07T16:07:01;7.90;77.00
1347;DHT22;667;48.796;9.480;2022-12-07T16:09:26;7.90;77.10
1347;DHT22;667;48.796;9.480;2022-12-07T16:11:52;7.90;77.10
1347;DHT22;667;48.796;9.480;2022-12-07T16:14:18;7.90;77.10
1347;DHT22;667;48.796;9.480;2022-12-07T16:16:43;7.90;77.20
1347;DHT22;667;48.796;9.480;2022-12-07T16:19:09;7.90;77.30
1347;DHT22;667;48.796;9.480;2022-12-07T16:21:36;7.90;77.20
1347;DHT22;667;48.796;9.480;2022-12-07T16:24:02;7.80;77.00
1347;DHT22;667;48.796;9.480;2022-12-07T16:26:28;7.80;76.80
1347;DHT22;667;48.796;9.480;2022-12-07T16:28:54;7.70;76.80
1347;DHT22;667;48.796;9.480;2022-12-07T16:31:22;7.70;76.70
1347;DHT22;667;48.796;9.480;2022-12-07T16:33:49;7.70;76.80
1347;DHT22;667;48.796;9.480;2022-12-07T16:36:15;7.70;76.80
1347;DHT22;667;48.796;9.480;2022-12-07T16:38:42;7.70;76.80
1347;DHT22;667;48.796;9.480;2022-12-07T16:41:08;7.70;76.80
1347;DHT22;667;48.796;9.480;2022-12-07T16:43:34;7.70;76.90
1347;DHT22;667;48.796;9.480;2022-12-07T16:46:00;7.70;76.90
1347;DHT22;667;48.796;9.480;2022-12-07T16:48:26;7.70;76.80
1347;DHT22;667;48.796;9.480;2022-12-07T16:50:51;7.70;76.70
1347;DHT22;667;48.796;9.480;2022-12-07T16:53:20;7.70;76.80
1347;DHT22;667;48.796;9.480;2022-12-07T16:55:46;7.70;76.80
1347;DHT22;667;48.796;9.480;2022-12-07T16:58:15;7.70;76.60
1347;DHT22;667;48.796;9.480;2022-12-07T17:00:42;7.70;76.60
1347;DHT22;667;48.796;9.480;2022-12-07T17:03:08;7.70;76.70
1347;DHT22;667;48.796;9.480;2022-12-07T17:05:40;7.70;76.80
1347;DHT22;667;48.796;9.480;2022-12-07T17:08:06;7.70;76.70
1347;DHT22;667;48.796;9.480;2022-12-07T17:10:33;7.70;76.60
1347;DHT22;667;48.796;9.480;2022-12-07T17:13:01;7.70;76.60
1347;DHT22;667;48.796;9.480;2022-12-07T17:15:26;7.70;76.60
1347;DHT22;667;48.796;9.480;2022-12-07T17:17:55;7.70;76.80
1347;DHT22;667;48.796;9.480;2022-12-07T17:20:23;7.70;76.80
1347;DHT22;667;48.796;9.480;2022-12-07T17:22:49;7.60;76.70
1347;DHT22;667;48.796;9.480;2022-12-07T17:25:15;7.60;76.60
1347;DHT22;667;48.796;9.480;2022-12-07T17:27:42;7.70;76.80
1347;DHT22;667;48.796;9.480;2022-12-07T17:30:09;7.60;76.90
1347;DHT22;667;48.796;9.480;2022-12-07T17:32:35;7.60;76.90
1347;DHT22;667;48.796;9.480;2022-12-07T17:35:00;7.60;77.00
1347;DHT22;667;48.796;9.480;2022-12-07T17:37:26;7.60;77.00
1347;DHT22;667;48.796;9.480;2022-12-07T17:39:52;7.60;77.00
1347;DHT22;667;48.796;9.480;2022-12-07T17:42:21;7.60;76.90
1347;DHT22;667;48.796;9.480;2022-12-07T17:45:08;7.50;76.70
1347;DHT22;667;48.796;9.480;2022-12-07T17:47:37;7.50;76.70
1347;DHT22;667;48.796;9.480;2022-12-07T17:50:05;7.50;76.70
1347;DHT22;667;48.796;9.480;2022-12-07T17:52:31;7.50;76.80
1347;DHT22;667;48.796;9.480;2022-12-07T17:55:15;7.50;76.90
1347;DHT22;667;48.796;9.480;2022-12-07T17:57:41;7.50;77.00
1347;DHT22;667;48.796;9.480;2022-12-07T18:00:08;7.50;77.10
1347;DHT22;667;48.796;9.480;2022-12-07T18:02:34;7.50;77.20
1347;DHT22;667;48.796;9.480;2022-12-07T18:04:59;7.50;77.40
1347;DHT22;667;48.796;9.480;2022-12-07T18:07:25;7.50;77.40
1347;DHT22;667;48.796;9.480;2022-12-07T18:09:50;7.50;77.60
1347;DHT22;667;48.796;9.480;2022-12-07T18:12:16;7.50;77.70
1347;DHT22;667;48.796;9.480;2022-12-07T18:14:41;7.50;77.80
1347;DHT22;667;48.796;9.480;2022-12-07T18:17:07;7.50;77.80
1347;DHT22;667;48.796;9.480;2022-12-07T18:19:33;7.50;77.90
1347;DHT22;667;48.796;9.480;2022-12-07T18:22:02;7.50;78.10
1347;DHT22;667;48.796;9.480;2022-12-07T18:24:28;7.50;78.10
1347;DHT22;667;48.796;9.480;2022-12-07T18:26:53;7.50;78.00
1347;DHT22;667;48.796;9.480;2022-12-07T18:29:19;7.50;78.10
1347;DHT22;667;48.796;9.480;2022-12-07T18:31:46;7.50;78.00
1347;DHT22;667;48.796;9.480;2022-12-07T18:34:14;7.50;78.10
1347;DHT22;667;48.796;9.480;2022-12-07T18:36:41;7.50;78.10
1347;DHT22;667;48.796;9.480;2022-12-07T18:39:11;7.50;78.20
1347;DHT22;667;48.796;9.480;2022-12-07T18:41:38;7.50;79.00
1347;DHT22;667;48.796;9.480;2022-12-07T18:44:04;7.50;78.40
1347;DHT22;667;48.796;9.480;2022-12-07T18:46:30;7.40;78.30
1347;DHT22;667;48.796;9.480;2022-12-07T18:48:56;7.40;78.40
1347;DHT22;667;48.796;9.480;2022-12-07T18:51:22;7.40;78.30
1347;DHT22;667;48.796;9.480;2022-12-07T18:53:48;7.40;78.30
1347;DHT22;667;48.796;9.480;2022-12-07T18:56:16;7.40;78.30
1347;DHT22;667;48.796;9.480;2022-12-07T18:58:43;7.40;78.40
1347;DHT22;667;48.796;9.480;2022-12-07T19:01:27;7.40;78.60
1347;DHT22;667;48.796;9.480;2022-12-07T19:03:52;7.30;78.50
1347;DHT22;667;48.796;9.480;2022-12-07T19:06:18;7.30;78.50